createdAt,value
2023-03-13T00:01:40.246Z,1.20
2023-03-13T00:04:10.090Z,1.10
2023-03-13T00:06:44.555Z,1.20
2023-03-13T00:09:14.661Z,1.20
2023-03-13T00:11:44.049Z,1.30
2023-03-13T00:14:12.658Z,1.10
2023-03-13T00:16:42.455Z,1.30
2023-03-13T00:19:12.975Z,1.20
2023-03-13T00:21:41.685Z,0.80
2023-03-13T00:24:17.003Z,1.00
2023-03-13T00:26:46.099Z,1.40
2023-03-13T00:29:14.485Z,1.20
2023-03-13T00:31:46.098Z,1.10
2023-03-13T00:34:16.468Z,0.90
2023-03-13T00:36:46.901Z,0.70
2023-03-13T00:39:16.613Z,1.00
2023-03-13T00:41:46.249Z,0.80
2023-03-13T00:44:15.166Z,1.10
2023-03-13T00:46:43.496Z,1.10
2023-03-13T00:49:11.979Z,1.00
2023-03-13T00:51:42.717Z,1.20
2023-03-13T00:54:11.198Z,1.10
2023-03-13T00:56:41.639Z,1.00
2023-03-13T00:59:10.114Z,0.90
2023-03-13T01:01:38.811Z,1.00
2023-03-13T01:04:10.384Z,1.00
2023-03-13T01:06:43.115Z,1.10
2023-03-13T01:09:13.548Z,1.00
2023-03-13T01:11:44.423Z,1.30
2023-03-13T01:14:19.730Z,1.10
2023-03-13T01:16:48.966Z,1.10
2023-03-13T01:19:19.170Z,1.20
2023-03-13T01:21:47.681Z,1.00
2023-03-13T01:24:17.394Z,1.10
2023-03-13T01:26:56.139Z,1.60
2023-03-13T01:29:25.313Z,1.10
2023-03-13T01:31:53.797Z,1.60
2023-03-13T01:39:21.920Z,1.20
2023-03-13T01:41:50.600Z,1.20
2023-03-13T01:44:25.397Z,1.20
2023-03-13T01:46:55.046Z,1.20
2023-03-13T01:49:33.753Z,1.60
2023-03-13T01:52:14.657Z,1.50
2023-03-13T01:54:56.290Z,1.30
2023-03-13T01:57:31.798Z,1.40
2023-03-13T02:00:08.371Z,1.40
2023-03-13T02:02:50.693Z,1.30
2023-03-13T02:05:21.227Z,1.20
2023-03-13T02:08:12.273Z,1.30
2023-03-13T02:10:44.117Z,1.40
2023-03-13T02:13:17.577Z,1.20
2023-03-13T02:15:47.742Z,1.20
2023-03-13T02:18:17.727Z,1.40
2023-03-13T02:21:08.731Z,1.50
2023-03-13T02:23:46.976Z,1.90
2023-03-13T02:26:15.978Z,1.80
2023-03-13T02:28:46.984Z,2.20
2023-03-13T02:31:18.286Z,2.20
2023-03-13T02:33:47.817Z,2.20
2023-03-13T02:36:21.242Z,1.70
2023-03-13T02:39:00.088Z,1.50
2023-03-13T02:41:28.659Z,1.90
2023-03-13T02:44:06.265Z,1.70
2023-03-13T02:46:52.668Z,1.60
2023-03-13T02:49:28.748Z,1.50
2023-03-13T02:52:00.589Z,1.50
2023-03-13T02:54:32.963Z,1.30
2023-03-13T02:57:03.509Z,1.90
2023-03-13T02:59:32.499Z,1.40
2023-03-13T03:02:01.392Z,1.60
2023-03-13T03:04:30.488Z,1.50
2023-03-13T03:06:59.999Z,2.10
2023-03-13T03:09:29.097Z,1.10
2023-03-13T03:12:03.215Z,1.80
2023-03-13T03:14:32.721Z,1.50
2023-03-13T03:17:01.423Z,1.60
2023-03-13T03:19:31.543Z,1.70
2023-03-13T03:22:01.957Z,1.50
2023-03-13T03:24:30.755Z,1.40
2023-03-13T03:26:59.245Z,1.40
2023-03-13T03:29:30.994Z,1.30
2023-03-13T03:32:01.403Z,1.80
2023-03-13T03:34:30.332Z,1.30
2023-03-13T03:37:03.305Z,1.50
2023-03-13T03:39:32.918Z,1.40
2023-03-13T03:42:01.916Z,1.50
2023-03-13T03:44:30.610Z,1.60
2023-03-13T03:47:03.075Z,1.50
2023-03-13T03:49:37.201Z,1.20
2023-03-13T03:52:06.745Z,1.60
2023-03-13T03:54:39.486Z,1.80
2023-03-13T03:57:08.331Z,1.80
2023-03-13T03:59:39.439Z,1.50
2023-03-13T04:02:10.167Z,1.70
2023-03-13T04:04:39.379Z,2.00
2023-03-13T04:07:14.920Z,2.10
2023-03-13T04:09:43.722Z,1.90
2023-03-13T04:12:18.237Z,1.90
2023-03-13T04:14:49.278Z,2.10
2023-03-13T04:17:18.082Z,1.70
2023-03-13T04:19:49.136Z,2.30
2023-03-13T04:22:19.236Z,2.00
2023-03-13T04:24:53.361Z,2.30
2023-03-13T04:27:23.272Z,2.20
2023-03-13T04:29:52.982Z,2.40
2023-03-13T04:32:27.663Z,1.90
2023-03-13T04:35:11.892Z,2.00
2023-03-13T04:38:13.117Z,2.10
2023-03-13T04:40:59.934Z,2.20
2023-03-13T04:43:46.744Z,2.30
2023-03-13T04:46:47.690Z,2.50
2023-03-13T04:49:36.965Z,1.70
2023-03-13T04:52:31.967Z,2.20
2023-03-13T04:55:41.219Z,2.00
2023-03-13T04:58:36.008Z,2.20
2023-03-13T05:01:35.661Z,2.10
2023-03-13T05:04:34.642Z,2.30
2023-03-13T05:07:28.101Z,2.20
2023-03-13T05:10:28.950Z,2.20
2023-03-13T05:13:27.220Z,1.90
2023-03-13T05:16:15.928Z,2.10
2023-03-13T05:19:05.561Z,3.10
2023-03-13T05:21:44.792Z,2.50
2023-03-13T05:24:26.598Z,2.70
2023-03-13T05:27:29.693Z,2.60
2023-03-13T05:30:21.212Z,3.60
2023-03-13T05:33:22.720Z,4.10
2023-03-13T05:36:09.899Z,3.30
2023-03-13T05:39:03.467Z,3.40
2023-03-13T05:41:58.569Z,3.10
2023-03-13T05:44:59.312Z,3.50
2023-03-13T05:47:48.480Z,3.50
2023-03-13T05:50:34.582Z,3.40
2023-03-13T05:53:18.318Z,3.40
2023-03-13T05:56:12.090Z,3.90
2023-03-13T05:58:53.886Z,3.70
2023-03-13T06:01:40.904Z,4.10
2023-03-13T06:04:27.529Z,4.50
2023-03-13T06:06:56.311Z,4.90
2023-03-13T06:09:25.457Z,4.00
2023-03-13T06:11:57.157Z,3.60
2023-03-13T06:14:25.546Z,3.90
2023-03-13T06:17:26.788Z,3.50
2023-03-13T06:19:55.686Z,4.00
2023-03-13T06:22:25.919Z,3.70
2023-03-13T06:24:55.103Z,4.60
2023-03-13T06:27:24.508Z,4.80
2023-03-13T06:29:53.410Z,5.00
2023-03-13T06:32:22.108Z,4.30
2023-03-13T06:34:52.824Z,4.10
2023-03-13T06:37:21.310Z,4.00
2023-03-13T06:39:49.791Z,4.50
2023-03-13T06:42:18.274Z,4.60
2023-03-13T06:44:46.766Z,4.80
2023-03-13T06:47:15.668Z,5.10
2023-03-13T06:49:44.131Z,5.30
2023-03-13T06:52:13.134Z,4.70
2023-03-13T06:54:42.630Z,4.90
2023-03-13T06:57:11.420Z,4.80
2023-03-13T06:59:40.416Z,4.40
2023-03-13T07:02:11.501Z,5.30
2023-03-13T07:04:40.045Z,4.30
2023-03-13T07:07:14.922Z,4.40
2023-03-13T07:09:48.278Z,4.30
2023-03-13T07:12:17.682Z,4.70
2023-03-13T07:14:47.599Z,5.20
2023-03-13T07:17:16.020Z,5.10
2023-03-13T07:19:44.590Z,4.80
2023-03-13T07:22:13.269Z,4.80
2023-03-13T07:24:48.940Z,4.20
2023-03-13T07:27:18.036Z,3.80
2023-03-13T07:29:46.685Z,4.10
2023-03-13T07:32:15.169Z,4.50
2023-03-13T07:34:46.538Z,5.00
2023-03-13T07:37:17.866Z,4.70
2023-03-13T07:39:46.554Z,4.20
2023-03-13T07:42:15.342Z,4.60
2023-03-13T07:44:44.746Z,4.60
2023-03-13T07:47:13.239Z,4.30
2023-03-13T07:49:44.373Z,4.00
2023-03-13T07:52:13.942Z,4.30
2023-03-13T07:54:43.077Z,4.00
2023-03-13T07:57:13.538Z,4.00
2023-03-13T07:59:41.989Z,4.10
2023-03-13T08:02:14.012Z,4.20
2023-03-13T08:04:42.894Z,3.80
2023-03-13T08:07:12.967Z,4.20
2023-03-13T08:09:42.372Z,4.40
2023-03-13T08:12:14.745Z,25.60
2023-03-13T08:14:48.546Z,5.40
2023-03-13T08:17:17.027Z,5.50
2023-03-13T08:22:32.836Z,5.00
2023-03-13T08:25:01.551Z,4.70
2023-03-13T08:27:30.718Z,6.30
2023-03-13T08:29:59.536Z,3.30
2023-03-13T08:32:29.310Z,3.20
2023-03-13T08:34:58.044Z,4.90
2023-03-13T08:37:26.415Z,6.30
2023-03-13T08:39:57.022Z,4.90
2023-03-13T08:42:26.029Z,5.20
2023-03-13T08:44:56.539Z,5.10
2023-03-13T08:47:25.022Z,6.80
2023-03-13T08:49:53.542Z,5.50
2023-03-13T08:52:22.605Z,4.60
2023-03-13T08:54:51.090Z,5.90
2023-03-13T08:57:19.671Z,5.00
2023-03-13T08:59:48.382Z,4.10
2023-03-13T09:02:21.092Z,4.80
2023-03-13T09:04:50.135Z,4.70
2023-03-13T09:07:18.423Z,4.60
2023-03-13T09:09:46.796Z,4.90
2023-03-13T09:12:29.688Z,4.90
2023-03-13T09:15:05.774Z,5.00
2023-03-13T09:17:35.393Z,4.00
2023-03-13T09:20:04.989Z,4.80
2023-03-13T09:25:02.364Z,3.70
2023-03-13T09:27:34.117Z,4.10
2023-03-13T09:30:02.910Z,3.90
2023-03-13T09:32:32.129Z,10.50
2023-03-13T09:35:01.405Z,4.10
2023-03-13T09:37:29.989Z,4.50
2023-03-13T09:40:08.642Z,4.00
2023-03-13T09:42:55.112Z,4.10
2023-03-13T09:45:37.077Z,3.90
2023-03-13T09:48:19.416Z,3.30
2023-03-13T09:50:51.998Z,3.90
2023-03-13T09:53:30.435Z,5.60
2023-03-13T09:55:59.091Z,5.10
2023-03-13T09:58:28.801Z,4.60
2023-03-13T10:01:02.651Z,5.60
2023-03-13T10:03:58.374Z,5.00
2023-03-13T10:06:27.218Z,5.00
2023-03-13T10:08:57.748Z,3.60
2023-03-13T10:11:39.031Z,3.70
2023-03-13T10:14:12.124Z,3.60
2023-03-13T10:16:49.011Z,4.20
2023-03-13T10:19:19.478Z,4.10
2023-03-13T10:21:54.192Z,4.00
2023-03-13T10:25:03.593Z,3.80
2023-03-13T10:27:32.281Z,4.10
2023-03-13T10:30:01.241Z,3.60
2023-03-13T10:32:30.169Z,3.80
2023-03-13T10:35:00.666Z,3.80
2023-03-13T10:37:30.627Z,3.40
2023-03-13T10:40:15.489Z,3.80
2023-03-13T10:42:46.314Z,4.30
2023-03-13T10:45:23.215Z,4.10
2023-03-13T10:47:56.854Z,3.80
2023-03-13T10:50:26.036Z,3.80
2023-03-13T10:52:55.414Z,3.90
2023-03-13T10:55:25.482Z,3.90
2023-03-13T10:58:04.340Z,3.80
2023-03-13T11:00:39.973Z,3.90
2023-03-13T11:03:24.437Z,3.40
2023-03-13T11:05:58.063Z,3.40
2023-03-13T11:08:27.819Z,3.10
2023-03-13T11:10:59.728Z,3.10
2023-03-13T11:13:37.616Z,3.20
2023-03-13T11:16:29.878Z,3.70
2023-03-13T11:19:08.701Z,3.40
2023-03-13T11:21:55.809Z,3.30
2023-03-13T11:24:42.421Z,3.90
2023-03-13T11:27:23.852Z,3.80
2023-03-13T11:30:23.025Z,3.90
2023-03-13T11:32:56.462Z,2.80
2023-03-13T11:35:42.517Z,4.30
2023-03-13T11:38:43.957Z,3.60
2023-03-13T11:41:24.608Z,3.80
2023-03-13T11:44:08.880Z,3.20
2023-03-13T11:46:59.985Z,3.90
2023-03-13T11:50:00.834Z,3.30
2023-03-13T11:52:41.353Z,3.50
2023-03-13T11:55:38.052Z,4.40
2023-03-13T11:58:30.905Z,3.60
2023-03-13T12:01:00.844Z,4.30
2023-03-13T12:03:44.940Z,4.00
2023-03-13T12:06:50.211Z,3.90
2023-03-13T12:09:26.123Z,3.60
2023-03-13T12:12:04.910Z,3.40
2023-03-13T12:14:41.568Z,4.20
2023-03-13T12:17:14.388Z,3.70
2023-03-13T12:19:51.639Z,4.10
2023-03-13T12:22:23.502Z,4.10
2023-03-13T12:25:01.203Z,3.70
2023-03-13T12:27:33.707Z,3.70
2023-03-13T12:30:27.295Z,3.70
2023-03-13T12:33:05.647Z,3.60
2023-03-13T12:35:39.992Z,3.20
2023-03-13T12:38:25.168Z,4.20
2023-03-13T12:41:11.676Z,3.50
2023-03-13T12:43:41.182Z,3.70
2023-03-13T12:46:30.669Z,3.40
2023-03-13T12:49:00.066Z,3.10
2023-03-13T12:51:31.719Z,3.10
2023-03-13T12:54:18.890Z,3.60
2023-03-13T12:57:08.550Z,3.10
2023-03-13T12:59:41.563Z,3.10
2023-03-13T13:02:29.128Z,3.10
2023-03-13T13:04:59.668Z,2.40
2023-03-13T13:07:29.788Z,3.20
2023-03-13T13:10:09.953Z,3.10
2023-03-13T13:12:41.357Z,3.20
2023-03-13T13:15:25.852Z,3.20
2023-03-13T13:18:03.755Z,3.20
2023-03-13T13:20:40.845Z,3.20
2023-03-13T13:23:34.149Z,2.90
2023-03-13T13:26:34.044Z,3.00
2023-03-13T13:29:12.747Z,3.60
2023-03-13T13:31:47.828Z,3.50
2023-03-13T13:34:28.453Z,3.20
2023-03-13T13:37:04.493Z,3.10
2023-03-13T13:39:53.180Z,3.50
2023-03-13T13:42:31.078Z,3.70
2023-03-13T13:45:15.143Z,3.00
2023-03-13T13:47:48.131Z,2.90
2023-03-13T13:50:26.733Z,3.20
2023-03-13T15:21:41.533Z,2.90
2023-03-13T15:24:15.436Z,3.00
2023-03-13T15:26:48.523Z,3.00
2023-03-13T15:29:18.654Z,2.60
2023-03-13T15:31:47.195Z,2.80
2023-03-13T15:34:16.738Z,2.60
2023-03-13T15:36:45.437Z,2.60
2023-03-13T15:39:19.566Z,2.80
2023-03-13T15:41:47.937Z,2.80
2023-03-13T15:44:16.520Z,2.80
2023-03-13T15:46:45.098Z,2.70
2023-03-13T15:49:13.994Z,2.80
2023-03-13T15:51:44.030Z,2.70
2023-03-13T15:56:43.941Z,2.90
2023-03-13T15:59:13.081Z,3.10
2023-03-13T16:01:48.648Z,3.10
2023-03-13T16:04:17.310Z,3.00
2023-03-13T16:06:50.978Z,2.90
2023-03-13T16:09:19.973Z,3.00
2023-03-13T16:11:48.351Z,3.00
2023-03-13T16:14:16.738Z,2.80
2023-03-13T16:16:45.906Z,3.30
2023-03-13T16:19:14.435Z,3.30
2023-03-13T16:21:48.586Z,3.90
2023-03-13T16:24:18.035Z,3.30
2023-03-13T16:26:51.331Z,2.90
2023-03-13T16:29:20.654Z,3.60
2023-03-13T16:31:49.118Z,4.00
2023-03-13T16:34:18.724Z,4.10
2023-03-13T16:36:47.107Z,3.80
2023-03-13T16:41:46.368Z,4.00
2023-03-13T16:44:20.038Z,4.00
2023-03-13T16:47:04.475Z,4.50
2023-03-13T16:49:34.005Z,4.90
2023-03-13T16:52:02.680Z,4.90
2023-03-13T16:54:31.266Z,4.90
2023-03-13T16:57:04.600Z,4.90
2023-03-13T16:59:33.043Z,4.50
2023-03-13T17:02:02.465Z,5.40
2023-03-13T17:04:31.692Z,4.60
2023-03-13T17:07:00.228Z,4.20
2023-03-13T17:09:35.775Z,4.00
2023-03-13T17:12:05.314Z,4.30
2023-03-13T17:14:33.664Z,4.70
2023-03-13T17:17:03.471Z,4.60
2023-03-13T17:19:32.568Z,3.30
2023-03-13T17:22:00.946Z,3.80
2023-03-13T17:24:29.536Z,4.40
2023-03-13T17:26:59.450Z,4.10
2023-03-13T17:29:27.926Z,4.10
2023-03-13T17:31:56.820Z,3.80
2023-03-13T17:34:31.047Z,4.00
2023-03-13T17:37:04.965Z,4.20
2023-03-13T17:39:33.534Z,5.10
2023-03-13T17:42:05.798Z,4.90
2023-03-13T17:44:34.691Z,4.60
2023-03-13T17:47:03.072Z,4.40
2023-03-13T17:49:31.756Z,4.90
2023-03-13T17:52:00.127Z,4.70
2023-03-13T17:54:29.028Z,4.80
2023-03-13T17:56:57.615Z,4.80
2023-03-13T17:59:30.184Z,5.20
2023-03-13T18:01:59.037Z,5.20
2023-03-13T18:04:28.592Z,5.10
2023-03-13T18:06:57.174Z,5.30
2023-03-13T18:09:25.667Z,5.30
2023-03-13T18:11:55.060Z,6.00
2023-03-13T18:14:24.875Z,6.40
2023-03-13T18:16:57.463Z,6.00
2023-03-13T18:19:26.755Z,6.20
2023-03-13T18:21:55.641Z,6.20
2023-03-13T18:24:28.101Z,5.60
2023-03-13T18:26:58.451Z,6.60
2023-03-13T18:31:58.810Z,6.20
2023-03-13T18:34:27.823Z,5.70
2023-03-13T18:36:56.485Z,6.20
2023-03-13T18:39:25.677Z,6.40
2023-03-13T18:41:54.355Z,5.90
2023-03-13T18:44:23.348Z,5.70
2023-03-13T18:46:53.273Z,5.80
2023-03-13T18:49:23.693Z,5.70
2023-03-13T18:51:54.075Z,6.20
2023-03-13T18:54:24.357Z,5.60
2023-03-13T18:59:21.932Z,5.20
2023-03-13T19:01:51.435Z,4.60
2023-03-13T19:04:20.021Z,4.00
2023-03-13T19:06:48.904Z,5.70
2023-03-13T19:09:42.664Z,5.10
2023-03-13T19:12:09.529Z,5.40
2023-03-13T19:14:38.945Z,5.40
2023-03-13T19:19:57.477Z,5.40
2023-03-13T19:22:25.989Z,5.40
2023-03-13T19:24:54.671Z,5.30
2023-03-13T19:27:23.165Z,5.30
2023-03-13T19:29:52.271Z,5.30
2023-03-13T19:32:20.812Z,5.70
2023-03-13T19:34:50.249Z,5.00
2023-03-13T19:37:19.645Z,5.10
2023-03-13T19:39:51.096Z,5.30
2023-03-13T19:42:19.780Z,5.10
2023-03-13T19:44:50.616Z,5.10
2023-03-13T19:47:19.219Z,5.30
2023-03-13T19:49:50.142Z,5.40
2023-03-13T19:52:19.398Z,5.00
2023-03-13T19:54:47.925Z,5.20
2023-03-13T19:57:18.355Z,4.70
2023-03-13T19:59:46.835Z,4.60
2023-03-13T20:02:17.715Z,5.30
2023-03-13T20:04:46.562Z,4.90
2023-03-13T20:07:15.009Z,4.90
2023-03-13T20:09:47.223Z,4.90
2023-03-13T20:12:17.541Z,4.80
2023-03-13T20:14:46.643Z,5.10
2023-03-13T20:17:15.430Z,4.80
2023-03-13T20:19:44.028Z,5.00
2023-03-13T20:22:13.928Z,4.00
2023-03-13T20:24:43.745Z,4.90
2023-03-13T20:27:13.353Z,5.10
2023-03-13T20:29:41.756Z,5.20
2023-03-13T20:32:11.649Z,5.30
2023-03-13T20:34:40.130Z,5.40
2023-03-13T20:37:08.513Z,5.20
2023-03-13T20:39:38.653Z,5.50
2023-03-13T20:42:08.474Z,4.80
2023-03-13T20:44:36.849Z,4.80
2023-03-13T20:47:06.025Z,4.90
2023-03-13T20:49:34.923Z,4.90
2023-03-13T20:52:04.831Z,5.40
2023-03-13T20:54:34.660Z,4.80
2023-03-13T20:57:08.971Z,5.20
2023-03-13T20:59:37.759Z,5.10
2023-03-13T21:02:06.797Z,4.90
2023-03-13T21:04:37.882Z,5.10
2023-03-13T21:07:06.686Z,5.20
2023-03-13T21:09:36.914Z,5.00
2023-03-13T21:12:05.748Z,5.70
2023-03-13T21:14:36.364Z,5.50
2023-03-13T21:17:06.168Z,5.00
2023-03-13T21:19:37.290Z,5.50
2023-03-13T21:22:05.882Z,5.30
2023-03-13T21:24:37.738Z,5.30
2023-03-13T21:27:06.432Z,5.00
2023-03-13T21:29:37.770Z,4.90
2023-03-13T21:32:07.690Z,6.00
2023-03-13T21:34:36.077Z,5.40
2023-03-13T21:37:06.191Z,4.90
2023-03-13T21:39:35.186Z,3.80
2023-03-13T21:42:04.587Z,4.90
2023-03-13T21:44:34.448Z,5.40
2023-03-13T21:47:02.912Z,5.10
2023-03-13T21:49:32.090Z,5.10
2023-03-13T21:52:00.463Z,4.80
2023-03-13T21:54:28.846Z,5.30
2023-03-13T21:56:57.534Z,5.40
2023-03-13T21:59:34.100Z,5.30
2023-03-13T22:02:04.016Z,5.30
2023-03-13T22:04:32.396Z,5.00
2023-03-13T22:07:01.391Z,5.00
2023-03-13T22:09:31.221Z,5.10
2023-03-13T22:11:59.786Z,5.20
2023-03-13T22:14:28.473Z,5.20
2023-03-13T22:16:56.952Z,5.50
2023-03-13T22:19:27.893Z,5.50
2023-03-13T22:21:56.909Z,6.00
2023-03-13T22:24:25.881Z,4.80
2023-03-13T22:26:55.288Z,5.40
2023-03-13T22:29:24.379Z,5.80
2023-03-13T22:31:52.658Z,5.30
2023-03-13T22:34:22.064Z,5.10
2023-03-13T22:36:50.757Z,4.60
2023-03-13T22:39:21.181Z,5.10
2023-03-13T22:44:18.164Z,5.00
2023-03-13T22:46:46.830Z,5.20
2023-03-13T22:49:15.511Z,5.50
2023-03-13T22:51:44.504Z,5.30
2023-03-13T22:54:12.883Z,5.30
2023-03-13T22:56:41.778Z,5.40
2023-03-13T22:59:10.567Z,5.30
2023-03-13T23:01:39.252Z,5.20
2023-03-13T23:04:08.350Z,4.90
2023-03-13T23:06:36.770Z,5.30
2023-03-13T23:09:07.774Z,5.50
2023-03-13T23:11:36.478Z,5.20
2023-03-13T23:14:08.433Z,5.10
2023-03-13T23:16:40.080Z,5.30
2023-03-13T23:19:08.564Z,5.20
2023-03-13T23:21:37.045Z,5.50
2023-03-13T23:24:06.858Z,4.90
2023-03-13T23:26:35.441Z,5.60
2023-03-13T23:29:04.192Z,5.20
2023-03-13T23:31:34.764Z,5.00
2023-03-13T23:34:03.144Z,5.30
2023-03-13T23:36:31.928Z,5.20
2023-03-13T23:39:04.918Z,5.10
2023-03-13T23:41:33.707Z,5.00
2023-03-13T23:44:02.218Z,4.80
2023-03-13T23:46:30.669Z,5.10
2023-03-13T23:48:59.455Z,5.10
2023-03-13T23:51:29.171Z,4.90
2023-03-13T23:53:58.168Z,5.00
2023-03-13T23:56:26.747Z,4.60
2023-03-13T23:58:57.696Z,4.70
